createdAt,value
2023-01-29T00:02:20.047Z,21.53
2023-01-29T00:04:47.323Z,22.30
2023-01-29T00:07:14.688Z,21.43
2023-01-29T00:09:41.915Z,18.70
2023-01-29T00:12:09.190Z,21.63
2023-01-29T00:14:36.434Z,15.97
2023-01-29T00:17:03.812Z,21.60
2023-01-29T00:19:31.046Z,24.83
2023-01-29T00:21:58.635Z,21.17
2023-01-29T00:24:25.884Z,21.23
2023-01-29T00:26:53.218Z,17.60
2023-01-29T00:29:22.065Z,17.03
2023-01-29T00:31:49.858Z,15.47
2023-01-29T00:34:17.329Z,20.13
2023-01-29T00:36:45.630Z,20.83
2023-01-29T00:39:13.352Z,22.47
2023-01-29T00:41:59.059Z,20.03
2023-01-29T00:44:45.118Z,20.00
2023-01-29T00:47:31.036Z,18.30
2023-01-29T00:49:58.420Z,19.80
2023-01-29T00:52:26.168Z,19.73
2023-01-29T00:54:56.226Z,22.43
2023-01-29T00:57:25.968Z,20.67
2023-01-29T00:59:54.673Z,24.05
2023-01-29T01:02:41.866Z,27.13
2023-01-29T01:05:14.293Z,27.03
2023-01-29T01:07:42.260Z,21.13
2023-01-29T01:10:23.354Z,26.90
2023-01-29T01:13:03.847Z,22.80
2023-01-29T01:15:40.359Z,30.08
2023-01-29T01:18:08.219Z,25.50
2023-01-29T01:20:37.034Z,24.23
2023-01-29T01:23:04.558Z,24.63
2023-01-29T01:25:32.256Z,21.93
2023-01-29T01:28:03.004Z,21.67
2023-01-29T01:32:57.856Z,21.10
2023-01-29T01:35:25.244Z,20.50
2023-01-29T01:37:52.788Z,19.17
2023-01-29T01:40:22.938Z,23.77
2023-01-29T01:42:56.511Z,22.63
2023-01-29T01:45:36.341Z,22.43
2023-01-29T01:48:08.218Z,23.10
2023-01-29T01:50:46.874Z,23.47
2023-01-29T01:53:21.690Z,20.53
2023-01-29T01:56:02.301Z,28.23
2023-01-29T01:58:39.106Z,25.83
2023-01-29T02:01:08.992Z,22.87
2023-01-29T02:04:09.303Z,32.55
2023-01-29T02:06:59.331Z,23.47
2023-01-29T02:09:39.655Z,22.20
2023-01-29T02:12:11.841Z,24.27
2023-01-29T02:14:41.545Z,22.23
2023-01-29T02:17:16.740Z,20.83
2023-01-29T02:20:15.167Z,21.80
2023-01-29T02:23:23.373Z,20.77
2023-01-29T02:26:10.944Z,17.53
2023-01-29T02:29:22.578Z,21.17
2023-01-29T02:32:26.379Z,17.37
2023-01-29T02:35:30.055Z,26.17
2023-01-29T02:38:29.562Z,19.67
2023-01-29T02:41:29.027Z,15.03
2023-01-29T02:44:16.937Z,19.23
2023-01-29T02:46:52.283Z,15.17
2023-01-29T02:49:35.848Z,17.87
2023-01-29T02:52:34.898Z,14.50
2023-01-29T02:55:13.700Z,13.30
2023-01-29T02:57:46.578Z,12.43
2023-01-29T03:00:26.562Z,13.10
2023-01-29T03:03:45.199Z,13.23
2023-01-29T03:06:24.151Z,10.83
2023-01-29T03:09:10.079Z,11.68
2023-01-29T03:11:46.744Z,11.50
2023-01-29T03:14:59.098Z,5.77
2023-01-29T03:17:34.032Z,8.03
2023-01-29T03:20:03.139Z,9.10
2023-01-29T03:22:31.086Z,6.03
2023-01-29T03:25:20.421Z,9.23
2023-01-29T03:28:16.251Z,6.43
2023-01-29T03:31:12.234Z,5.83
2023-01-29T03:34:24.699Z,8.07
2023-01-29T03:37:09.463Z,5.87
2023-01-29T03:39:37.245Z,6.50
2023-01-29T03:42:34.856Z,6.17
2023-01-29T03:45:36.907Z,5.47
2023-01-29T03:48:06.902Z,8.90
2023-01-29T03:50:45.864Z,5.20
2023-01-29T03:53:44.139Z,7.83
2023-01-29T03:56:52.940Z,6.53
2023-01-29T03:59:53.700Z,4.97
2023-01-29T04:03:07.904Z,5.90
2023-01-29T04:06:05.518Z,5.90
2023-01-29T04:08:59.419Z,5.17
2023-01-29T04:11:31.754Z,4.03
2023-01-29T04:13:59.550Z,7.90
2023-01-29T04:16:37.153Z,4.43
2023-01-29T04:19:31.072Z,7.63
2023-01-29T04:22:24.457Z,7.80
2023-01-29T04:24:54.571Z,5.93
2023-01-29T04:27:44.113Z,5.68
2023-01-29T04:30:50.480Z,6.03
2023-01-29T04:33:33.085Z,5.80
2023-01-29T04:36:45.849Z,6.07
2023-01-29T04:39:29.978Z,5.77
2023-01-29T04:42:31.253Z,6.90
2023-01-29T04:45:30.437Z,8.23
2023-01-29T04:48:22.758Z,9.37
2023-01-29T04:51:12.983Z,9.17
2023-01-29T04:54:29.619Z,7.30
2023-01-29T04:57:46.302Z,5.83
2023-01-29T05:00:24.663Z,9.10
2023-01-29T05:02:53.358Z,9.33
2023-01-29T05:05:21.806Z,9.50
2023-01-29T05:07:49.783Z,7.97
2023-01-29T05:10:20.407Z,9.70
2023-01-29T05:12:55.168Z,7.65
2023-01-29T05:15:37.464Z,10.30
2023-01-29T05:18:08.854Z,9.27
2023-01-29T05:20:40.437Z,13.73
2023-01-29T05:23:22.285Z,9.83
2023-01-29T05:25:51.955Z,14.43
2023-01-29T05:28:19.745Z,10.27
2023-01-29T05:30:50.412Z,10.90
2023-01-29T05:33:21.048Z,9.55
2023-01-29T05:35:49.271Z,8.18
2023-01-29T05:38:20.075Z,9.83
2023-01-29T05:40:48.216Z,8.20
2023-01-29T05:43:23.710Z,9.03
2023-01-29T05:46:01.577Z,11.07
2023-01-29T05:48:31.527Z,6.33
2023-01-29T05:51:03.971Z,9.10
2023-01-29T05:53:32.629Z,8.90
2023-01-29T05:56:05.204Z,6.70
2023-01-29T05:58:33.693Z,9.70
2023-01-29T06:01:13.947Z,10.10
2023-01-29T06:03:41.459Z,5.05
2023-01-29T06:06:09.320Z,7.70
2023-01-29T06:08:36.892Z,6.63
2023-01-29T06:11:04.865Z,5.03
2023-01-29T06:13:32.118Z,8.07
2023-01-29T06:15:59.354Z,5.23
2023-01-29T06:18:26.705Z,6.23
2023-01-29T06:20:54.003Z,6.30
2023-01-29T06:23:21.232Z,10.07
2023-01-29T06:25:48.487Z,7.10
2023-01-29T06:28:15.682Z,10.90
2023-01-29T06:30:43.039Z,7.90
2023-01-29T06:33:10.337Z,7.80
2023-01-29T06:35:37.517Z,10.80
2023-01-29T06:38:04.717Z,13.43
2023-01-29T06:40:32.001Z,7.00
2023-01-29T06:43:01.533Z,44.00
2023-01-29T06:45:28.893Z,20.83
2023-01-29T06:47:58.016Z,14.90
2023-01-29T06:50:26.043Z,16.25
2023-01-29T06:52:53.332Z,19.43
2023-01-29T06:55:20.664Z,14.33
2023-01-29T06:57:47.890Z,8.20
2023-01-29T07:00:17.370Z,8.07
2023-01-29T07:02:50.344Z,11.73
2023-01-29T07:05:17.794Z,8.70
2023-01-29T07:07:45.036Z,10.80
2023-01-29T07:10:12.416Z,10.13
2023-01-29T07:12:39.543Z,16.63
2023-01-29T07:15:07.724Z,8.63
2023-01-29T07:17:34.966Z,11.70
2023-01-29T07:20:02.325Z,9.47
2023-01-29T07:22:29.536Z,17.10
2023-01-29T07:24:56.762Z,10.20
2023-01-29T07:27:24.432Z,12.50
2023-01-29T07:29:51.728Z,11.37
2023-01-29T07:32:18.952Z,14.83
2023-01-29T07:34:46.297Z,18.93
2023-01-29T07:37:13.729Z,15.23
2023-01-29T07:39:41.092Z,14.93
2023-01-29T07:42:08.389Z,13.73
2023-01-29T07:44:35.685Z,25.00
2023-01-29T07:47:05.477Z,14.30
2023-01-29T07:49:32.789Z,18.33
2023-01-29T07:52:00.119Z,23.43
2023-01-29T07:54:27.490Z,12.20
2023-01-29T07:57:02.058Z,14.83
2023-01-29T07:59:29.472Z,12.17
2023-01-29T08:01:57.116Z,16.63
2023-01-29T08:04:24.633Z,11.20
2023-01-29T08:06:51.991Z,13.90
2023-01-29T08:09:19.353Z,12.73
2023-01-29T08:11:46.712Z,13.30
2023-01-29T08:14:14.078Z,10.73
2023-01-29T08:16:41.438Z,9.77
2023-01-29T08:19:08.770Z,8.80
2023-01-29T08:21:36.317Z,10.60
2023-01-29T08:24:04.117Z,11.43
2023-01-29T08:26:31.337Z,8.80
2023-01-29T08:28:58.766Z,11.13
2023-01-29T08:31:26.126Z,8.30
2023-01-29T08:33:55.543Z,9.53
2023-01-29T08:36:23.008Z,11.93
2023-01-29T08:38:50.433Z,9.70
2023-01-29T08:41:17.754Z,10.10
2023-01-29T08:43:46.607Z,8.57
2023-01-29T08:46:14.165Z,9.77
2023-01-29T08:48:41.455Z,8.27
2023-01-29T08:51:09.964Z,8.13
2023-01-29T08:53:37.399Z,8.30
2023-01-29T08:56:05.181Z,5.10
2023-01-29T08:58:32.608Z,6.75
2023-01-29T09:01:12.050Z,4.82
2023-01-29T09:03:44.693Z,7.70
2023-01-29T09:06:14.555Z,13.43
2023-01-29T09:08:42.366Z,5.73
2023-01-29T09:11:10.732Z,6.93
2023-01-29T09:13:38.018Z,5.25
2023-01-29T09:16:05.860Z,7.35
2023-01-29T09:18:33.198Z,6.70
2023-01-29T09:21:02.100Z,5.97
2023-01-29T09:23:30.716Z,7.88
2023-01-29T09:25:58.183Z,5.72
2023-01-29T09:28:25.906Z,7.38
2023-01-29T09:30:53.653Z,6.97
2023-01-29T09:33:21.036Z,6.25
2023-01-29T09:35:48.659Z,4.85
2023-01-29T09:38:17.013Z,5.28
2023-01-29T09:41:32.259Z,6.93
2023-01-29T09:44:09.613Z,6.25
2023-01-29T09:46:47.369Z,5.70
2023-01-29T09:49:34.297Z,4.72
2023-01-29T09:52:24.870Z,4.18
2023-01-29T09:55:07.468Z,5.50
2023-01-29T09:57:49.283Z,5.97
2023-01-29T10:00:36.473Z,6.13
2023-01-29T10:03:09.496Z,3.97
2023-01-29T10:06:04.251Z,4.88
2023-01-29T10:08:46.640Z,4.82
2023-01-29T10:11:56.988Z,5.93
2023-01-29T10:15:02.223Z,7.15
2023-01-29T10:17:40.188Z,5.05
2023-01-29T10:20:25.140Z,5.32
2023-01-29T10:23:13.792Z,6.18
2023-01-29T10:25:45.148Z,5.38
2023-01-29T10:28:50.229Z,7.75
2023-01-29T10:31:34.349Z,5.82
2023-01-29T10:34:16.777Z,6.78
2023-01-29T10:36:47.330Z,7.95
2023-01-29T10:39:21.117Z,8.48
2023-01-29T10:42:11.146Z,5.90
2023-01-29T10:45:04.245Z,5.30
2023-01-29T10:47:55.661Z,8.67
2023-01-29T10:51:14.736Z,7.00
2023-01-29T10:54:25.537Z,7.93
2023-01-29T10:57:09.536Z,10.20
2023-01-29T11:00:11.018Z,13.20
2023-01-29T11:02:48.656Z,11.50
2023-01-29T11:05:51.772Z,10.03
2023-01-29T11:08:24.782Z,11.53
2023-01-29T11:11:11.898Z,8.60
2023-01-29T11:14:00.343Z,8.17
2023-01-29T11:16:33.360Z,10.17
2023-01-29T11:19:01.993Z,13.27
2023-01-29T11:21:30.243Z,8.60
2023-01-29T11:24:18.767Z,10.10
2023-01-29T11:26:49.702Z,7.97
2023-01-29T11:29:48.355Z,5.93
2023-01-29T11:32:26.747Z,6.30
2023-01-29T11:35:15.206Z,7.97
2023-01-29T11:37:46.037Z,7.03
2023-01-29T11:42:47.855Z,6.67
2023-01-29T11:45:29.987Z,6.57
2023-01-29T11:47:58.342Z,5.90
2023-01-29T11:50:33.938Z,7.15
2023-01-29T11:53:03.307Z,7.95
2023-01-29T11:55:49.791Z,7.13
2023-01-29T11:58:32.466Z,5.30
2023-01-29T12:01:00.989Z,6.63
2023-01-29T12:03:41.537Z,6.28
2023-01-29T12:06:37.537Z,9.15
2023-01-29T12:09:17.509Z,6.03
2023-01-29T12:11:45.213Z,6.22
2023-01-29T12:14:34.348Z,5.97
2023-01-29T12:17:34.149Z,6.80
2023-01-29T12:20:12.997Z,6.53
2023-01-29T12:23:11.009Z,5.25
2023-01-29T12:26:09.205Z,6.85
2023-01-29T12:28:45.090Z,7.82
2023-01-29T12:31:53.503Z,8.40
2023-01-29T12:34:48.355Z,10.60
2023-01-29T12:37:28.943Z,7.93
2023-01-29T12:39:56.447Z,9.07
2023-01-29T12:42:25.605Z,8.93
2023-01-29T12:45:01.579Z,7.53
2023-01-29T12:47:52.088Z,7.72
2023-01-29T12:50:37.670Z,9.50
2023-01-29T12:53:41.380Z,9.15
2023-01-29T12:56:31.797Z,6.35
2023-01-29T12:59:04.913Z,10.98
2023-01-29T13:02:06.006Z,9.95
2023-01-29T13:04:47.117Z,8.13
2023-01-29T13:07:20.727Z,7.72
2023-01-29T13:09:53.332Z,9.35
2023-01-29T13:12:23.276Z,7.10
2023-01-29T13:15:02.898Z,8.00
2023-01-29T13:17:58.420Z,8.20
2023-01-29T13:20:37.641Z,11.25
2023-01-29T13:23:26.061Z,6.63
2023-01-29T13:25:54.848Z,8.02
2023-01-29T13:28:26.730Z,6.88
2023-01-29T13:31:28.658Z,6.82
2023-01-29T13:34:20.560Z,6.88
2023-01-29T13:36:59.638Z,8.15
2023-01-29T13:39:44.594Z,8.70
2023-01-29T14:02:30.274Z,10.50
2023-01-29T14:05:29.703Z,8.23
2023-01-29T14:08:13.462Z,16.70
2023-01-29T14:10:42.455Z,7.30
2023-01-29T14:13:18.959Z,10.87
2023-01-29T14:15:59.461Z,8.43
2023-01-29T14:18:29.245Z,10.90
2023-01-29T14:21:20.659Z,12.10
2023-01-29T14:23:54.442Z,13.03
2023-01-29T14:26:30.304Z,11.13
2023-01-29T14:29:14.440Z,10.00
2023-01-29T14:31:55.408Z,9.13
2023-01-29T14:34:31.116Z,16.00
2023-01-29T14:37:34.441Z,10.10
2023-01-29T14:40:27.557Z,8.60
2023-01-29T14:43:20.899Z,9.03
2023-01-29T14:45:49.935Z,9.83
2023-01-29T14:48:48.684Z,10.20
2023-01-29T14:51:20.350Z,14.23
2023-01-29T14:54:19.301Z,13.40
2023-01-29T14:57:17.634Z,11.50
2023-01-29T15:00:02.960Z,11.77
2023-01-29T15:02:43.531Z,10.87
2023-01-29T15:05:23.979Z,10.93
2023-01-29T15:08:06.245Z,13.45
2023-01-29T15:11:15.494Z,14.07
2023-01-29T15:13:52.283Z,10.23
2023-01-29T15:16:51.815Z,12.53
2023-01-29T15:19:31.473Z,16.00
2023-01-29T15:22:29.404Z,18.17
2023-01-29T15:25:05.135Z,13.47
2023-01-29T15:27:32.814Z,15.27
2023-01-29T15:30:04.776Z,14.70
2023-01-29T15:32:36.783Z,15.27
2023-01-29T15:35:43.628Z,15.40
2023-01-29T15:38:25.508Z,15.03
2023-01-29T15:40:53.954Z,14.52
2023-01-29T15:43:35.172Z,17.93
2023-01-29T15:46:10.952Z,14.80
2023-01-29T15:48:42.833Z,14.77
2023-01-29T15:51:20.325Z,18.87
2023-01-29T15:53:59.497Z,18.60
2023-01-29T15:56:35.936Z,20.63
2023-01-29T15:59:09.786Z,21.57
2023-01-29T16:01:37.460Z,19.97
2023-01-29T16:04:05.292Z,17.43
2023-01-29T16:06:38.946Z,16.20
2023-01-29T16:09:07.368Z,16.50
2023-01-29T16:11:37.759Z,14.93
2023-01-29T16:14:06.593Z,16.00
2023-01-29T16:16:33.946Z,12.63
2023-01-29T16:19:01.609Z,14.77
2023-01-29T16:21:41.502Z,16.37
2023-01-29T16:24:14.091Z,16.67
2023-01-29T16:26:47.786Z,13.93
2023-01-29T16:29:19.268Z,19.83
2023-01-29T16:31:48.763Z,16.20
2023-01-29T16:34:29.241Z,15.40
2023-01-29T16:36:57.689Z,21.98
2023-01-29T16:39:32.869Z,20.03
2023-01-29T16:42:19.836Z,18.83
2023-01-29T16:44:59.860Z,22.77
2023-01-29T16:47:36.138Z,21.23
2023-01-29T16:50:46.412Z,18.63
2023-01-29T16:53:24.642Z,24.23
2023-01-29T16:55:53.291Z,22.45
2023-01-29T16:58:25.374Z,25.77
2023-01-29T17:01:03.100Z,23.70
2023-01-29T17:03:33.920Z,18.53
2023-01-29T17:08:43.078Z,23.43
2023-01-29T17:11:13.839Z,20.02
2023-01-29T17:16:46.698Z,18.83
2023-01-29T17:19:20.913Z,16.13
2023-01-29T17:21:53.447Z,18.93
2023-01-29T17:24:20.661Z,22.43
2023-01-29T17:26:48.099Z,19.10
2023-01-29T17:29:20.942Z,21.97
2023-01-29T17:31:48.319Z,24.70
2023-01-29T17:34:17.961Z,26.03
2023-01-29T17:36:46.149Z,30.57
2023-01-29T17:39:24.490Z,25.20
2023-01-29T17:41:55.071Z,34.77
2023-01-29T17:44:22.874Z,32.70
2023-01-29T17:46:50.779Z,36.37
2023-01-29T17:49:24.365Z,37.13
2023-01-29T17:51:53.679Z,42.03
2023-01-29T17:54:22.563Z,39.30
2023-01-29T17:56:51.641Z,35.00
2023-01-29T17:59:29.785Z,36.67
2023-01-29T18:01:57.653Z,35.53
2023-01-29T18:04:25.794Z,37.17
2023-01-29T18:06:54.449Z,36.37
2023-01-29T18:09:22.402Z,38.00
2023-01-29T18:11:51.101Z,31.57
2023-01-29T18:14:18.678Z,36.30
2023-01-29T18:16:46.764Z,34.63
2023-01-29T18:19:20.812Z,35.90
2023-01-29T18:21:51.092Z,28.33
2023-01-29T18:24:20.496Z,29.08
2023-01-29T18:26:49.684Z,24.10
2023-01-29T18:29:17.143Z,25.60
2023-01-29T18:31:44.430Z,24.00
2023-01-29T18:34:11.827Z,26.03
2023-01-29T18:36:46.791Z,20.77
2023-01-29T18:39:15.592Z,28.00
2023-01-29T18:41:43.122Z,18.83
2023-01-29T18:44:13.399Z,30.33
2023-01-29T18:46:41.488Z,26.65
2023-01-29T18:49:09.058Z,24.73
2023-01-29T18:51:36.674Z,19.23
2023-01-29T18:54:04.436Z,17.77
2023-01-29T18:56:34.371Z,15.23
2023-01-29T18:59:01.702Z,15.07
2023-01-29T19:01:29.059Z,16.80
2023-01-29T19:03:59.225Z,19.17
2023-01-29T19:06:26.592Z,18.13
2023-01-29T19:08:53.991Z,27.73
2023-01-29T19:11:21.342Z,31.67
2023-01-29T19:13:49.824Z,30.70
2023-01-29T19:16:17.536Z,30.00
2023-01-29T19:18:44.982Z,25.90
2023-01-29T19:21:14.741Z,30.27
2023-01-29T19:23:45.128Z,29.00
2023-01-29T19:26:15.635Z,43.70
2023-01-29T19:28:43.251Z,53.33
2023-01-29T19:31:11.508Z,24.90
2023-01-29T19:33:39.409Z,26.63
2023-01-29T19:36:10.483Z,33.17
2023-01-29T19:38:38.881Z,29.20
2023-01-29T19:41:06.663Z,28.30
2023-01-29T19:43:34.494Z,26.33
2023-01-29T19:46:02.707Z,26.30
2023-01-29T19:48:30.348Z,22.80
2023-01-29T19:51:10.394Z,21.13
2023-01-29T19:53:44.907Z,25.55
2023-01-29T19:56:15.977Z,31.57
2023-01-29T19:58:44.756Z,34.77
2023-01-29T20:01:19.145Z,37.10
2023-01-29T20:03:49.445Z,29.03
2023-01-29T20:06:19.991Z,24.83
2023-01-29T20:11:19.685Z,21.67
2023-01-29T20:13:49.769Z,26.77
2023-01-29T20:16:18.668Z,23.63
2023-01-29T20:18:46.272Z,25.70
2023-01-29T20:21:20.501Z,21.13
2023-01-29T20:23:50.413Z,22.63
2023-01-29T20:26:19.188Z,33.37
2023-01-29T20:28:56.772Z,32.93
2023-01-29T20:31:24.060Z,35.73
2023-01-29T20:33:51.416Z,31.80
2023-01-29T20:36:18.808Z,33.73
2023-01-29T20:38:46.272Z,34.73
2023-01-29T20:41:16.830Z,30.80
2023-01-29T20:43:47.462Z,31.85
2023-01-29T20:46:15.366Z,39.47
2023-01-29T20:48:43.045Z,33.20
2023-01-29T20:51:15.456Z,37.27
2023-01-29T20:53:46.843Z,32.83
2023-01-29T20:56:17.303Z,34.10
2023-01-29T20:58:46.999Z,35.53
2023-01-29T21:01:18.658Z,30.93
2023-01-29T21:03:47.098Z,35.97
2023-01-29T21:06:14.957Z,32.00
2023-01-29T21:08:42.747Z,33.53
2023-01-29T21:11:10.599Z,32.33
2023-01-29T21:13:38.443Z,27.37
2023-01-29T21:16:06.475Z,36.63
2023-01-29T21:18:33.782Z,31.07
2023-01-29T21:21:01.021Z,32.63
2023-01-29T21:23:28.251Z,28.27
2023-01-29T21:26:03.574Z,28.57
2023-01-29T21:28:34.017Z,29.17
2023-01-29T21:31:12.802Z,26.35
2023-01-29T21:33:40.447Z,27.67
2023-01-29T21:36:10.059Z,26.13
2023-01-29T21:38:37.877Z,22.03
2023-01-29T21:41:09.687Z,26.13
2023-01-29T21:43:39.059Z,21.83
2023-01-29T21:46:15.608Z,23.20
2023-01-29T21:48:43.253Z,22.77
2023-01-29T21:51:10.462Z,22.73
2023-01-29T21:53:39.965Z,26.87
2023-01-29T21:56:09.535Z,24.40
2023-01-29T21:58:36.811Z,27.80
2023-01-29T22:01:15.725Z,23.10
2023-01-29T22:03:51.713Z,29.50
2023-01-29T22:06:22.113Z,24.87
2023-01-29T22:08:50.391Z,27.38
2023-01-29T22:11:17.740Z,28.47
2023-01-29T22:13:44.964Z,25.43
2023-01-29T22:16:12.294Z,28.20
2023-01-29T22:18:39.526Z,30.03
2023-01-29T22:21:06.919Z,24.30
2023-01-29T22:23:34.088Z,23.43
2023-01-29T22:26:06.385Z,27.00
2023-01-29T22:28:33.764Z,22.57
2023-01-29T22:31:02.967Z,34.80
2023-01-29T22:33:30.558Z,29.93
2023-01-29T22:35:58.019Z,26.70
2023-01-29T22:38:25.422Z,27.20
2023-01-29T22:40:54.508Z,27.73
2023-01-29T22:43:23.079Z,24.67
2023-01-29T22:45:50.275Z,29.60
2023-01-29T22:48:17.552Z,22.90
2023-01-29T22:50:53.942Z,24.90
2023-01-29T22:53:21.217Z,27.67
2023-01-29T22:55:55.686Z,28.70
2023-01-29T22:58:22.951Z,29.73
2023-01-29T23:00:51.367Z,29.47
2023-01-29T23:03:18.604Z,28.47
2023-01-29T23:05:45.948Z,29.00
2023-01-29T23:08:13.251Z,25.13
2023-01-29T23:10:40.461Z,24.83
2023-01-29T23:13:07.951Z,26.87
2023-01-29T23:15:35.251Z,25.20
2023-01-29T23:18:03.790Z,27.17
2023-01-29T23:20:31.387Z,23.90
2023-01-29T23:22:58.806Z,23.47
2023-01-29T23:25:46.306Z,20.77
2023-01-29T23:28:13.850Z,22.70
2023-01-29T23:30:41.145Z,20.17
2023-01-29T23:33:11.857Z,21.40
2023-01-29T23:35:39.443Z,19.37
2023-01-29T23:38:06.576Z,19.57
2023-01-29T23:40:33.781Z,27.53
2023-01-29T23:43:01.058Z,21.33
2023-01-29T23:45:28.289Z,27.33
2023-01-29T23:47:57.942Z,30.67
2023-01-29T23:50:25.155Z,31.83
2023-01-29T23:52:52.422Z,32.43
2023-01-29T23:55:19.608Z,41.57
2023-01-29T23:57:46.931Z,42.13
